createdAt,value
2022-08-22T00:00:13.881Z,101522.94
2022-08-22T00:00:54.363Z,101517.44
2022-08-22T00:01:29.162Z,101518.72
2022-08-22T00:02:04.084Z,101522.94
2022-08-22T00:02:37.936Z,101521.47
2022-08-22T00:02:42.424Z,101513.09
2022-08-22T00:02:45.054Z,101486.84
2022-08-22T00:02:46.652Z,101541.34
2022-08-22T00:02:54.107Z,101544.47
2022-08-22T00:03:00.025Z,101483.16
2022-08-22T00:03:04.983Z,101544.34
2022-08-22T00:03:11.262Z,101551.56
2022-08-22T00:03:12.733Z,101542.31
2022-08-22T00:03:16.249Z,101524.78
2022-08-22T00:04:06.045Z,101522.28
2022-08-22T00:04:47.512Z,101515.38
2022-08-22T00:05:23.439Z,101514.09
2022-08-22T00:06:12.256Z,101521.81
2022-08-22T00:06:55.666Z,101514.91
2022-08-22T00:07:33.583Z,101519.81
2022-08-22T00:08:23.090Z,101519.00
2022-08-22T00:08:59.869Z,101525.44
2022-08-22T00:09:34.329Z,101511.19
2022-08-22T00:10:22.808Z,101520.41
2022-08-22T00:11:12.724Z,101520.94
2022-08-22T00:11:50.216Z,101520.69
2022-08-22T00:12:24.006Z,101520.25
2022-08-22T00:13:01.856Z,101511.72
2022-08-22T00:13:36.384Z,101513.59
2022-08-22T00:14:11.290Z,101515.34
2022-08-22T00:14:45.482Z,101510.13
2022-08-22T00:15:43.653Z,101517.16
2022-08-22T00:16:21.770Z,101515.81
2022-08-22T00:16:56.660Z,101521.75
2022-08-22T00:17:42.819Z,101515.50
2022-08-22T00:18:27.721Z,101519.94
2022-08-22T00:19:17.307Z,101518.31
2022-08-22T00:19:48.758Z,101519.00
2022-08-22T00:20:28.325Z,101519.94
2022-08-22T00:21:09.687Z,101519.59
2022-08-22T00:21:47.600Z,101518.53
2022-08-22T00:22:37.851Z,101517.84
2022-08-22T00:23:11.544Z,101513.63
2022-08-22T00:24:02.125Z,101513.63
2022-08-22T00:24:33.540Z,101512.56
2022-08-22T00:25:25.853Z,101512.56
2022-08-22T00:25:57.856Z,101522.88
2022-08-22T00:26:33.823Z,101516.84
2022-08-22T00:27:08.255Z,101520.75
2022-08-22T00:27:48.773Z,101515.72
2022-08-22T00:28:21.688Z,101514.09
2022-08-22T00:29:04.224Z,101526.94
2022-08-22T00:29:43.535Z,101520.75
2022-08-22T00:30:16.670Z,101521.56
2022-08-22T00:31:07.070Z,101519.22
2022-08-22T00:31:49.379Z,101524.50
2022-08-22T00:32:33.086Z,101513.28
2022-08-22T00:33:06.887Z,101513.16
2022-08-22T00:33:42.754Z,101518.06
2022-08-22T00:34:16.954Z,101516.44
2022-08-22T00:34:53.901Z,101514.31
2022-08-22T00:35:41.695Z,101520.75
2022-08-22T00:36:23.071Z,101509.19
2022-08-22T00:37:02.920Z,101524.72
2022-08-22T00:37:39.411Z,101523.09
2022-08-22T00:38:10.978Z,101515.22
2022-08-22T00:38:44.081Z,101515.69
2022-08-22T00:39:19.809Z,101520.34
2022-08-22T00:40:09.784Z,101516.75
2022-08-22T00:40:45.127Z,101516.16
2022-08-22T00:41:24.485Z,101516.34
2022-08-22T00:41:58.566Z,101515.91
2022-08-22T00:42:48.319Z,101515.09
2022-08-22T00:43:27.974Z,101514.25
2022-08-22T00:44:08.135Z,101516.34
2022-08-22T00:44:51.342Z,101511.78
2022-08-22T00:45:22.755Z,101513.53
2022-08-22T00:45:59.683Z,101523.94
2022-08-22T00:46:43.095Z,101517.75
2022-08-22T00:47:17.172Z,101520.56
2022-08-22T00:48:03.563Z,101527.19
2022-08-22T00:48:38.867Z,101514.13
2022-08-22T00:49:11.629Z,101517.97
2022-08-22T00:49:53.329Z,101511.13
2022-08-22T00:50:44.736Z,101524.09
2022-08-22T00:51:22.482Z,101513.94
2022-08-22T00:52:12.961Z,101515.69
2022-08-22T00:52:47.283Z,101511.47
2022-08-22T00:53:21.751Z,101517.09
2022-08-22T00:53:56.959Z,101515.22
2022-08-22T00:54:34.195Z,101517.19
2022-08-22T00:55:14.353Z,101523.84
2022-08-22T00:55:59.207Z,101517.56
2022-08-22T00:56:33.246Z,101523.84
2022-08-22T00:57:17.130Z,101518.63
2022-08-22T00:58:06.978Z,101520.88
2022-08-22T00:58:44.629Z,101521.22
2022-08-22T00:59:31.621Z,101518.31
2022-08-22T01:00:08.849Z,101526.13
2022-08-22T01:00:54.065Z,101526.13
2022-08-22T01:01:33.296Z,101522.13
2022-08-22T01:02:11.158Z,101524.44
2022-08-22T01:03:21.150Z,101528.31
2022-08-22T01:04:00.797Z,101527.13
2022-08-22T01:04:34.886Z,101523.78
2022-08-22T01:05:15.195Z,101528.31
2022-08-22T01:05:50.569Z,101524.31
2022-08-22T01:06:21.978Z,101525.63
2022-08-22T01:06:56.067Z,101528.94
2022-08-22T01:07:38.356Z,101525.03
2022-08-22T01:08:10.069Z,101526.06
2022-08-22T01:08:59.945Z,101525.25
2022-08-22T01:09:31.706Z,101524.91
2022-08-22T01:10:10.371Z,101526.78
2022-08-22T01:10:48.035Z,101519.41
2022-08-22T01:11:34.552Z,101520.59
2022-08-22T01:12:15.773Z,101524.31
2022-08-22T01:13:16.873Z,101522.91
2022-08-22T01:13:49.117Z,101533.19
2022-08-22T01:14:34.434Z,101528.63
2022-08-22T01:15:10.375Z,101521.41
2022-08-22T01:15:42.367Z,101522.56
2022-08-22T01:16:13.787Z,101527.72
2022-08-22T01:16:56.005Z,101523.28
2022-08-22T01:17:33.169Z,101524.69
2022-08-22T01:18:12.866Z,101520.59
2022-08-22T01:18:49.144Z,101517.66
2022-08-22T01:19:20.609Z,101529.22
2022-08-22T01:20:14.147Z,101524.91
2022-08-22T01:21:04.365Z,101531.31
2022-08-22T01:21:39.074Z,101525.97
2022-08-22T01:22:22.515Z,101529.22
2022-08-22T01:23:02.828Z,101523.28
2022-08-22T01:23:42.930Z,101523.16
2022-08-22T01:24:22.128Z,101531.56
2022-08-22T01:25:25.797Z,101528.28
2022-08-22T01:25:57.739Z,101525.84
2022-08-22T01:26:38.399Z,101522.91
2022-08-22T01:27:30.379Z,101523.44
2022-08-22T01:28:18.653Z,101524.41
2022-08-22T01:28:56.087Z,101530.69
2022-08-22T01:29:39.834Z,101531.50
2022-08-22T01:30:18.440Z,101521.81
2022-08-22T01:30:49.828Z,101519.59
2022-08-22T01:31:21.254Z,101532.44
2022-08-22T01:31:55.562Z,101536.16
2022-08-22T01:32:42.630Z,101532.44
2022-08-22T01:33:33.197Z,101539.44
2022-08-22T01:34:13.599Z,101527.69
2022-08-22T01:34:54.015Z,101530.38
2022-08-22T01:35:28.272Z,101537.59
2022-08-22T01:36:18.430Z,101525.59
2022-08-22T01:37:06.135Z,101530.59
2022-08-22T01:37:56.487Z,101527.78
2022-08-22T01:38:46.628Z,101529.13
2022-08-22T01:39:36.999Z,101532.63
2022-08-22T01:40:23.703Z,101535.91
2022-08-22T01:41:14.576Z,101531.38
2022-08-22T01:41:51.011Z,101526.22
2022-08-22T01:42:34.729Z,101526.22
2022-08-22T01:43:22.540Z,101528.31
2022-08-22T01:44:37.481Z,101527.13
2022-08-22T01:45:17.960Z,101532.50
2022-08-22T01:46:10.695Z,101533.78
2022-08-22T01:46:53.460Z,101525.97
2022-08-22T01:47:39.298Z,101528.78
2022-08-22T01:48:12.965Z,101533.41
2022-08-22T01:48:47.765Z,101533.41
2022-08-22T01:49:24.393Z,101535.06
2022-08-22T01:49:57.573Z,101529.22
2022-08-22T01:50:49.445Z,101529.22
2022-08-22T01:51:23.522Z,101526.88
2022-08-22T01:52:13.420Z,101524.78
2022-08-22T01:52:47.084Z,101532.00
2022-08-22T01:53:38.085Z,101527.47
2022-08-22T01:54:11.645Z,101531.31
2022-08-22T01:55:01.957Z,101529.69
2022-08-22T01:55:43.497Z,101525.97
2022-08-22T01:56:15.254Z,101527.31
2022-08-22T01:56:46.849Z,101533.13
2022-08-22T01:57:18.700Z,101530.00
2022-08-22T01:57:57.932Z,101523.59
2022-08-22T01:58:34.172Z,101524.78
2022-08-22T01:59:10.065Z,101529.22
2022-08-22T01:59:55.791Z,101533.09
2022-08-22T02:00:35.192Z,101532.38
2022-08-22T02:01:08.260Z,101522.06
2022-08-22T02:01:58.428Z,101529.41
2022-08-22T02:02:32.577Z,101523.47
2022-08-22T02:03:07.277Z,101524.13
2022-08-22T02:03:43.881Z,101524.34
2022-08-22T02:04:33.970Z,101520.91
2022-08-22T02:05:17.215Z,101514.72
2022-08-22T02:05:50.395Z,101522.19
2022-08-22T02:06:33.143Z,101522.06
2022-08-22T02:07:13.103Z,101514.66
2022-08-22T02:08:00.349Z,101515.84
2022-08-22T02:08:41.031Z,101521.28
2022-08-22T02:09:31.041Z,101525.91
2022-08-22T02:10:06.662Z,101522.69
2022-08-22T02:10:48.373Z,101514.66
2022-08-22T02:11:38.167Z,101525.44
2022-08-22T02:12:22.149Z,101520.06
2022-08-22T02:12:59.675Z,101518.22
2022-08-22T02:13:37.205Z,101513.03
2022-08-22T02:14:17.929Z,101521.19
2022-08-22T02:14:52.819Z,101516.00
2022-08-22T02:15:36.122Z,101516.16
2022-08-22T02:16:36.670Z,101514.06
2022-08-22T02:17:24.888Z,101517.78
2022-08-22T02:18:02.233Z,101520.59
2022-08-22T02:18:42.376Z,101518.50
2022-08-22T02:19:13.927Z,101515.91
2022-08-22T02:19:48.262Z,101525.28
2022-08-22T02:20:22.640Z,101519.69
2022-08-22T02:20:57.047Z,101523.28
2022-08-22T02:21:32.645Z,101518.69
2022-08-22T02:22:22.771Z,101512.97
2022-08-22T02:22:56.553Z,101519.97
2022-08-22T02:23:44.681Z,101518.31
2022-08-22T02:24:24.528Z,101518.38
2022-08-22T02:25:00.713Z,101516.28
2022-08-22T02:25:46.508Z,101515.84
2022-08-22T02:26:26.201Z,101510.94
2022-08-22T02:27:02.742Z,101523.16
2022-08-22T02:27:39.532Z,101519.03
2022-08-22T02:28:13.467Z,101516.34
2022-08-22T02:28:57.409Z,101512.72
2022-08-22T02:29:31.387Z,101512.72
2022-08-22T02:30:03.968Z,101514.81
2022-08-22T02:30:47.103Z,101513.53
2022-08-22T02:31:20.615Z,101517.84
2022-08-22T02:31:56.762Z,101513.91
2022-08-22T02:32:30.453Z,101518.91
2022-08-22T02:33:05.781Z,101511.09
2022-08-22T02:33:46.214Z,101511.22
2022-08-22T02:34:23.395Z,101517.16
2022-08-22T02:35:01.280Z,101516.75
2022-08-22T02:35:37.682Z,101506.44
2022-08-22T02:36:19.992Z,101506.25
2022-08-22T02:36:53.904Z,101517.56
2022-08-22T02:37:32.213Z,101511.44
2022-08-22T02:38:18.956Z,101505.94
2022-08-22T02:38:59.567Z,101507.00
2022-08-22T02:39:30.986Z,101508.19
2022-08-22T02:40:22.391Z,101509.81
2022-08-22T02:41:12.428Z,101512.72
2022-08-22T02:41:49.691Z,101505.50
2022-08-22T02:42:21.571Z,101512.25
2022-08-22T02:43:01.039Z,101508.13
2022-08-22T02:43:51.084Z,101507.31
2022-08-22T02:44:25.582Z,101511.81
2022-08-22T02:45:06.936Z,101506.44
2022-08-22T02:45:46.942Z,101510.56
2022-08-22T02:46:33.658Z,101509.88
2022-08-22T02:47:34.326Z,101508.44
2022-08-22T02:48:17.250Z,101503.94
2022-08-22T02:49:01.544Z,101505.84
2022-08-22T02:49:43.944Z,101508.25
2022-08-22T02:50:18.584Z,101511.69
2022-08-22T02:50:54.789Z,101509.34
2022-08-22T02:51:26.420Z,101507.94
2022-08-22T02:52:02.206Z,101500.66
2022-08-22T02:52:38.984Z,101503.28
2022-08-22T02:53:15.098Z,101505.88
2022-08-22T02:54:05.257Z,101508.69
2022-08-22T02:54:45.460Z,101514.78
2022-08-22T02:55:35.318Z,101504.97
2022-08-22T02:56:25.767Z,101522.22
2022-08-22T02:57:02.225Z,101509.06
2022-08-22T02:57:39.551Z,101508.69
2022-08-22T02:58:14.692Z,101508.81
2022-08-22T02:58:59.209Z,101507.91
2022-08-22T03:00:01.032Z,101509.94
2022-08-22T03:00:52.845Z,101503.06
2022-08-22T03:01:26.220Z,101509.94
2022-08-22T03:01:57.943Z,101507.97
2022-08-22T03:02:29.699Z,101511.59
2022-08-22T03:03:21.270Z,101509.16
2022-08-22T03:03:53.030Z,101507.97
2022-08-22T03:04:30.342Z,101506.09
2022-08-22T03:05:22.740Z,101515.34
2022-08-22T03:06:01.643Z,101509.50
2022-08-22T03:06:35.619Z,101507.88
2022-08-22T03:07:07.297Z,101501.31
2022-08-22T03:07:40.358Z,101505.41
2022-08-22T03:08:14.345Z,101511.13
2022-08-22T03:09:03.691Z,101501.59
2022-08-22T03:09:41.234Z,101499.50
2022-08-22T03:10:15.796Z,101504.47
2022-08-22T03:10:56.526Z,101504.81
2022-08-22T03:11:29.984Z,101499.38
2022-08-22T03:12:05.298Z,101506.22
2022-08-22T03:12:57.325Z,101495.97
2022-08-22T03:13:41.232Z,101501.88
2022-08-22T03:14:38.883Z,101494.78
2022-08-22T03:15:10.309Z,101498.34
2022-08-22T03:15:49.366Z,101496.88
2022-08-22T03:16:36.420Z,101497.81
2022-08-22T03:17:10.017Z,101497.13
2022-08-22T03:18:01.867Z,101493.88
2022-08-22T03:18:48.860Z,101497.47
2022-08-22T03:19:23.247Z,101493.38
2022-08-22T03:20:07.301Z,101491.88
2022-08-22T03:20:47.869Z,101493.63
2022-08-22T03:21:37.760Z,101495.63
2022-08-22T03:22:30.027Z,101497.03
2022-08-22T03:23:03.639Z,101491.53
2022-08-22T03:23:40.895Z,101490.03
2022-08-22T03:24:30.599Z,101494.69
2022-08-22T03:25:23.304Z,101490.31
2022-08-22T03:25:57.970Z,101489.81
2022-08-22T03:26:55.554Z,101489.69
2022-08-22T03:27:33.906Z,101490.72
2022-08-22T03:28:09.870Z,101490.84
2022-08-22T03:28:59.513Z,101494.13
2022-08-22T03:29:36.451Z,101487.34
2022-08-22T03:30:10.842Z,101497.34
2022-08-22T03:31:04.468Z,101486.63
2022-08-22T03:31:36.155Z,101487.78
2022-08-22T03:32:07.699Z,101481.97
2022-08-22T03:32:50.184Z,101481.50
2022-08-22T03:33:25.710Z,101490.50
2022-08-22T03:34:15.665Z,101492.34
2022-08-22T03:34:55.953Z,101483.84
2022-08-22T03:35:28.166Z,101479.59
2022-08-22T03:36:01.845Z,101495.16
2022-08-22T03:36:33.277Z,101481.03
2022-08-22T03:37:10.843Z,101488.28
2022-08-22T03:37:42.802Z,101482.91
2022-08-22T03:38:18.005Z,101481.97
2022-08-22T03:38:54.838Z,101483.84
2022-08-22T03:39:44.827Z,101475.34
2022-08-22T03:40:31.742Z,101487.59
2022-08-22T03:41:03.487Z,101476.13
2022-08-22T03:41:38.274Z,101482.09
2022-08-22T03:42:17.937Z,101473.13
2022-08-22T03:43:06.531Z,101478.03
2022-08-22T03:43:37.953Z,101477.13
2022-08-22T03:44:09.543Z,101478.38
2022-08-22T03:44:51.492Z,101474.66
2022-08-22T03:45:38.539Z,101474.56
2022-08-22T03:46:33.527Z,101479.47
2022-08-22T03:47:17.051Z,101480.28
2022-08-22T03:47:48.514Z,101470.72
2022-08-22T03:48:38.821Z,101482.50
2022-08-22T03:49:25.416Z,101481.22
2022-08-22T03:50:08.779Z,101481.56
2022-08-22T03:51:06.546Z,101480.97
2022-08-22T03:51:46.084Z,101476.66
2022-08-22T03:52:17.570Z,101478.16
2022-08-22T03:53:07.617Z,101479.19
2022-08-22T03:54:05.734Z,101476.50
2022-08-22T03:54:37.226Z,101478.75
2022-08-22T03:55:08.923Z,101472.19
2022-08-22T03:55:50.494Z,101478.38
2022-08-22T03:56:33.735Z,101475.03
2022-08-22T03:57:06.425Z,101471.84
2022-08-22T03:57:44.392Z,101477.78
2022-08-22T03:58:30.655Z,101469.84
2022-08-22T03:59:11.707Z,101476.75
2022-08-22T04:00:03.690Z,101472.19
2022-08-22T04:00:36.302Z,101469.38
2022-08-22T04:01:10.597Z,101475.09
2022-08-22T04:01:53.088Z,101465.56
2022-08-22T04:02:50.663Z,101473.41
2022-08-22T04:03:22.352Z,101471.75
2022-08-22T04:04:09.435Z,101470.84
2022-08-22T04:04:46.946Z,101464.72
2022-08-22T04:05:18.351Z,101464.72
2022-08-22T04:05:57.193Z,101464.28
2022-08-22T04:06:56.287Z,101465.47
2022-08-22T04:07:47.110Z,101469.19
2022-08-22T04:08:26.155Z,101471.88
2022-08-22T04:09:04.336Z,101479.47
2022-08-22T04:09:43.047Z,101477.38
2022-08-22T04:10:33.605Z,101483.56
2022-08-22T04:11:13.625Z,101476.91
2022-08-22T04:11:53.566Z,101469.91
2022-08-22T04:12:46.979Z,101476.91
2022-08-22T04:13:27.395Z,101473.16
2022-08-22T04:13:58.918Z,101468.72
2022-08-22T04:14:44.542Z,101470.38
2022-08-22T04:15:31.361Z,101473.63
2022-08-22T04:16:02.785Z,101468.84
2022-08-22T04:16:43.071Z,101466.00
2022-08-22T04:17:15.532Z,101469.28
2022-08-22T04:18:08.064Z,101471.97
2022-08-22T04:18:39.831Z,101469.50
2022-08-22T04:19:19.603Z,101478.34
2022-08-22T04:20:00.005Z,101474.28
2022-08-22T04:20:31.761Z,101475.97
2022-08-22T04:21:06.280Z,101474.22
2022-08-22T04:21:49.576Z,101470.47
2022-08-22T04:22:39.823Z,101469.75
2022-08-22T04:23:11.371Z,101471.38
2022-08-22T04:24:01.311Z,101469.66
2022-08-22T04:24:42.973Z,101468.72
2022-08-22T04:25:25.631Z,101470.38
2022-08-22T04:26:14.370Z,101473.63
2022-08-22T04:26:48.647Z,101475.84
2022-08-22T04:27:40.510Z,101470.47
2022-08-22T04:28:17.071Z,101478.78
2022-08-22T04:28:49.450Z,101475.28
2022-08-22T04:29:33.944Z,101479.69
2022-08-22T04:30:05.823Z,101482.97
2022-08-22T04:30:42.734Z,101475.97
2022-08-22T04:31:17.164Z,101481.81
2022-08-22T04:31:53.869Z,101475.50
2022-08-22T04:32:25.546Z,101477.84
2022-08-22T04:33:06.553Z,101475.03
2022-08-22T04:33:38.065Z,101475.72
2022-08-22T04:34:11.028Z,101484.47
2022-08-22T04:34:47.579Z,101480.63
2022-08-22T04:35:31.690Z,101488.22
2022-08-22T04:36:12.228Z,101482.16
2022-08-22T04:36:57.846Z,101477.59
2022-08-22T04:37:48.164Z,101471.06
2022-08-22T04:38:24.709Z,101481.91
2022-08-22T04:39:02.154Z,101476.78
2022-08-22T04:39:35.563Z,101475.28
2022-08-22T04:40:07.011Z,101481.44
2022-08-22T04:40:46.943Z,101480.63
2022-08-22T04:41:24.905Z,101479.22
2022-08-22T04:42:11.113Z,101483.91
2022-08-22T04:42:52.950Z,101484.03
2022-08-22T04:43:31.255Z,101483.91
2022-08-22T04:44:05.724Z,101479.25
2022-08-22T04:44:44.801Z,101488.34
2022-08-22T04:45:20.243Z,101489.03
2022-08-22T04:45:55.330Z,101481.28
2022-08-22T04:46:37.013Z,101480.75
2022-08-22T04:47:25.283Z,101487.41
2022-08-22T04:48:16.773Z,101484.59
2022-08-22T04:48:51.342Z,101482.63
2022-08-22T04:49:22.744Z,101492.53
2022-08-22T04:49:59.244Z,101487.97
2022-08-22T04:50:30.708Z,101494.75
2022-08-22T04:51:11.230Z,101491.59
2022-08-22T04:51:47.250Z,101491.25
2022-08-22T04:52:48.260Z,101487.63
2022-08-22T04:53:34.920Z,101492.88
2022-08-22T04:54:18.816Z,101493.25
2022-08-22T04:54:57.898Z,101494.88
2022-08-22T04:55:47.868Z,101496.06
2022-08-22T04:56:24.119Z,101495.38
2022-08-22T04:57:14.605Z,101493.38
2022-08-22T04:58:06.550Z,101493.34
2022-08-22T04:58:38.292Z,101500.72
2022-08-22T04:59:13.703Z,101499.91
2022-08-22T04:59:45.742Z,101499.06
2022-08-22T05:00:17.970Z,101495.34
2022-08-22T05:00:53.943Z,101506.06
2022-08-22T05:01:26.716Z,101498.03
2022-08-22T05:01:59.665Z,101495.81
2022-08-22T05:02:31.159Z,101500.13
2022-08-22T05:03:02.619Z,101500.13
2022-08-22T05:03:36.155Z,101494.53
2022-08-22T05:04:08.659Z,101502.81
2022-08-22T05:04:46.577Z,101497.91
2022-08-22T05:05:22.023Z,101498.97
2022-08-22T05:05:53.704Z,101499.53
2022-08-22T05:06:26.504Z,101501.06
2022-08-22T05:07:00.267Z,101502.09
2022-08-22T05:07:39.140Z,101500.94
2022-08-22T05:08:12.487Z,101500.94
2022-08-22T05:08:44.410Z,101502.09
2022-08-22T05:09:16.661Z,101498.50
2022-08-22T05:09:49.513Z,101501.88
2022-08-22T05:10:33.447Z,101507.00
2022-08-22T05:11:06.086Z,101506.44
2022-08-22T05:11:37.519Z,101503.06
2022-08-22T05:12:11.931Z,101497.25
2022-08-22T05:12:49.631Z,101502.16
2022-08-22T05:13:23.353Z,101510.09
2022-08-22T05:13:55.816Z,101504.72
2022-08-22T05:14:38.069Z,101507.50
2022-08-22T05:15:14.166Z,101508.69
2022-08-22T05:15:58.874Z,101502.72
2022-08-22T05:16:32.314Z,101511.38
2022-08-22T05:17:04.431Z,101508.69
2022-08-22T05:17:36.064Z,101504.94
2022-08-22T05:18:13.667Z,101506.09
2022-08-22T05:18:55.394Z,101503.19
2022-08-22T05:19:32.079Z,101500.28
2022-08-22T05:20:06.615Z,101504.00
2022-08-22T05:20:38.444Z,101504.81
2022-08-22T05:21:09.971Z,101502.53
2022-08-22T05:21:46.340Z,101499.84
2022-08-22T05:22:19.277Z,101502.53
2022-08-22T05:22:52.440Z,101504.78
2022-08-22T05:23:28.438Z,101517.72
2022-08-22T05:24:07.363Z,101509.19
2022-08-22T05:24:40.237Z,101513.75
2022-08-22T05:25:13.203Z,101506.03
2022-08-22T05:25:45.146Z,101501.72
2022-08-22T05:26:16.572Z,101508.72
2022-08-22T05:26:53.719Z,101503.34
2022-08-22T05:27:26.161Z,101503.34
2022-08-22T05:28:19.004Z,101504.19
2022-08-22T05:28:53.383Z,101505.56
2022-08-22T05:29:26.443Z,101507.78
2022-08-22T05:30:09.605Z,101508.84
2022-08-22T05:30:42.859Z,101516.44
2022-08-22T05:31:17.418Z,101508.59
2022-08-22T05:31:56.693Z,101509.06
2022-08-22T05:32:29.137Z,101512.69
2022-08-22T05:33:20.828Z,101515.13
2022-08-22T05:33:53.880Z,101518.63
2022-08-22T05:34:26.667Z,101517.00
2022-08-22T05:34:59.239Z,101516.66
2022-08-22T05:35:35.460Z,101517.59
2022-08-22T05:36:10.618Z,101520.84
2022-08-22T05:36:46.076Z,101524.13
2022-08-22T05:37:19.397Z,101520.84
2022-08-22T05:37:51.963Z,101519.22
2022-08-22T05:38:24.016Z,101520.28
2022-08-22T05:39:03.927Z,101516.06
2022-08-22T05:39:35.346Z,101516.88
2022-08-22T05:40:07.283Z,101521.31
2022-08-22T05:40:38.782Z,101513.50
2022-08-22T05:41:12.562Z,101512.22
2022-08-22T05:41:44.719Z,101519.69
2022-08-22T05:42:18.944Z,101520.50
2022-08-22T05:42:50.483Z,101510.59
2022-08-22T05:43:23.126Z,101523.44
2022-08-22T05:43:54.892Z,101515.25
2022-08-22T05:44:35.305Z,101520.63
2022-08-22T05:45:11.594Z,101523.44
2022-08-22T05:45:45.216Z,101520.84
2022-08-22T05:46:19.214Z,101520.84
2022-08-22T05:47:02.813Z,101525.41
2022-08-22T05:47:37.076Z,101520.84
2022-08-22T05:48:10.196Z,101521.31
2022-08-22T05:48:43.623Z,101513.63
2022-08-22T05:49:19.015Z,101524.25
2022-08-22T05:50:12.114Z,101522.16
2022-08-22T05:50:50.978Z,101520.16
2022-08-22T05:51:25.334Z,101527.16
2022-08-22T05:52:06.124Z,101525.06
2022-08-22T05:52:57.850Z,101531.72
2022-08-22T05:53:32.579Z,101523.53
2022-08-22T05:54:14.650Z,101529.47
2022-08-22T05:54:51.376Z,101518.72
2022-08-22T05:55:22.823Z,101518.72
2022-08-22T05:56:23.412Z,101529.00
2022-08-22T05:57:00.377Z,101528.78
2022-08-22T05:57:33.607Z,101522.72
2022-08-22T05:58:23.969Z,101538.38
2022-08-22T05:59:08.215Z,101528.19
2022-08-22T05:59:40.723Z,101529.72
2022-08-22T06:00:13.173Z,101531.47
2022-08-22T06:00:46.077Z,101531.22
2022-08-22T06:01:36.267Z,101533.22
2022-08-22T06:02:07.833Z,101533.94
2022-08-22T06:02:42.349Z,101535.66
2022-08-22T06:03:16.912Z,101536.97
2022-08-22T06:03:56.958Z,101532.41
2022-08-22T06:04:36.385Z,101533.00
2022-08-22T06:05:11.864Z,101542.00
2022-08-22T06:05:44.896Z,101532.88
2022-08-22T06:06:17.154Z,101539.41
2022-08-22T06:06:57.634Z,101527.38
2022-08-22T06:07:32.058Z,101532.66
2022-08-22T06:08:05.281Z,101535.09
2022-08-22T06:08:38.688Z,101532.50
2022-08-22T06:09:13.044Z,101534.59
2022-08-22T06:09:59.497Z,101531.75
2022-08-22T06:10:34.077Z,101539.72
2022-08-22T06:11:26.074Z,101541.09
2022-08-22T06:12:21.796Z,101539.00
2022-08-22T06:13:11.367Z,101537.94
2022-08-22T06:13:53.658Z,101539.81
2022-08-22T06:14:42.249Z,101544.38
2022-08-22T06:15:13.939Z,101542.41
2022-08-22T06:15:47.285Z,101540.28
2022-08-22T06:16:23.755Z,101536.22
2022-08-22T06:17:06.186Z,101544.84
2022-08-22T06:17:39.511Z,101546.47
2022-08-22T06:18:12.238Z,101533.63
2022-08-22T06:18:44.342Z,101529.28
2022-08-22T06:19:19.548Z,101542.75
2022-08-22T06:19:52.202Z,101533.13
2022-08-22T06:20:25.836Z,101533.13
2022-08-22T06:21:01.967Z,101531.00
2022-08-22T06:21:39.152Z,101527.75
2022-08-22T06:22:11.771Z,101534.75
2022-08-22T06:22:54.487Z,101532.06
2022-08-22T06:23:38.410Z,101530.44
2022-08-22T06:24:13.200Z,101528.81
2022-08-22T06:24:44.678Z,101528.22
2022-08-22T06:25:18.587Z,101530.69
2022-08-22T06:25:50.508Z,101530.34
2022-08-22T06:26:22.301Z,101528.72
2022-08-22T06:26:54.708Z,101536.22
2022-08-22T06:27:26.691Z,101532.13
2022-08-22T06:28:04.558Z,101527.56
2022-08-22T06:28:38.342Z,101536.22
2022-08-22T06:29:29.521Z,101530.50
2022-08-22T06:30:03.089Z,101530.81
2022-08-22T06:30:35.819Z,101533.28
2022-08-22T06:31:08.437Z,101539.47
2022-08-22T06:31:42.290Z,101535.72
2022-08-22T06:32:30.643Z,101528.22
2022-08-22T06:33:12.671Z,101539.31
2022-08-22T06:33:45.922Z,101535.91
2022-08-22T06:34:22.950Z,101533.81
2022-08-22T06:34:55.180Z,101538.13
2022-08-22T06:35:29.515Z,101536.50
2022-08-22T06:36:21.150Z,101539.88
2022-08-22T06:36:52.730Z,101542.69
2022-08-22T06:37:26.868Z,101545.16
2022-08-22T06:37:59.197Z,101540.56
2022-08-22T06:38:33.499Z,101538.47
2022-08-22T06:39:22.919Z,101535.88
2022-08-22T06:39:54.397Z,101544.03
2022-08-22T06:40:25.962Z,101536.53
2022-08-22T06:40:58.057Z,101534.41
2022-08-22T06:41:30.440Z,101536.63
2022-08-22T06:42:03.383Z,101534.97
2022-08-22T06:42:37.520Z,101537.59
2022-08-22T06:43:09.025Z,101538.50
2022-08-22T06:43:41.782Z,101544.22
2022-08-22T06:44:14.057Z,101544.22
2022-08-22T06:44:47.765Z,101547.00
2022-08-22T06:45:23.105Z,101540.31
2022-08-22T06:45:54.700Z,101540.16
2022-08-22T06:46:26.770Z,101544.56
2022-08-22T06:46:58.892Z,101548.31
2022-08-22T06:47:31.088Z,101540.81
2022-08-22T06:48:05.575Z,101546.59
2022-08-22T06:48:37.803Z,101552.00
2022-08-22T06:49:09.317Z,101554.69
2022-08-22T06:49:40.887Z,101545.88
2022-08-22T06:50:17.495Z,101549.81
2022-08-22T06:50:52.423Z,101551.22
2022-08-22T06:51:24.947Z,101555.28
2022-08-22T06:52:00.418Z,101553.66
2022-08-22T06:52:33.966Z,101557.16
2022-08-22T06:53:11.513Z,101553.91
2022-08-22T06:53:48.032Z,101551.28
2022-08-22T06:54:22.455Z,101554.56
2022-08-22T06:55:02.270Z,101543.78
2022-08-22T06:55:34.091Z,101550.31
2022-08-22T06:56:06.345Z,101548.75
2022-08-22T06:56:41.134Z,101545.00
2022-08-22T06:57:29.534Z,101550.31
2022-08-22T06:58:20.927Z,101549.31
2022-08-22T06:58:53.071Z,101551.78
2022-08-22T06:59:26.518Z,101556.03
2022-08-22T06:59:58.010Z,101549.31
2022-08-22T07:00:29.468Z,101559.03
2022-08-22T07:01:12.465Z,101554.09
2022-08-22T07:01:49.629Z,101557.66
2022-08-22T07:02:35.800Z,101566.88
2022-08-22T07:03:07.216Z,101569.59
2022-08-22T07:03:40.406Z,101560.22
2022-08-22T07:04:11.915Z,101556.22
2022-08-22T07:04:43.582Z,101559.72
2022-08-22T07:05:17.138Z,101558.97
2022-08-22T07:05:50.044Z,101561.91
2022-08-22T07:06:32.281Z,101565.00
2022-08-22T07:07:03.914Z,101561.03
2022-08-22T07:07:35.777Z,101568.31
2022-08-22T07:08:08.501Z,101567.56
2022-08-22T07:08:40.096Z,101560.13
2022-08-22T07:09:17.266Z,101566.09
2022-08-22T07:09:53.752Z,101566.69
2022-08-22T07:10:25.450Z,101569.94
2022-08-22T07:11:11.755Z,101570.00
2022-08-22T07:11:43.455Z,101573.19
2022-08-22T07:12:18.937Z,101567.88
2022-08-22T07:12:51.122Z,101568.50
2022-08-22T07:13:22.588Z,101572.53
2022-08-22T07:13:55.473Z,101572.06
2022-08-22T07:14:47.169Z,101568.94
2022-08-22T07:15:20.370Z,101578.09
2022-08-22T07:15:53.622Z,101568.44
2022-08-22T07:16:34.932Z,101566.88
2022-08-22T07:17:08.671Z,101570.16
2022-08-22T07:17:47.019Z,101570.72
2022-08-22T07:18:19.653Z,101574.31
2022-08-22T07:18:51.264Z,101571.84
2022-08-22T07:19:32.877Z,101568.69
2022-08-22T07:20:23.690Z,101573.63